createdAt,value
2023-02-11T00:00:19.805Z,2.42
2023-02-11T00:02:47.913Z,2.75
2023-02-11T00:05:14.676Z,3.28
2023-02-11T00:07:41.124Z,2.50
2023-02-11T00:10:07.989Z,3.33
2023-02-11T00:12:38.223Z,2.92
2023-02-11T00:15:05.346Z,3.10
2023-02-11T00:17:32.219Z,2.92
2023-02-11T00:19:58.628Z,3.20
2023-02-11T00:22:25.086Z,3.13
2023-02-11T00:24:51.419Z,2.75
2023-02-11T00:27:17.841Z,3.60
2023-02-11T00:29:44.209Z,2.97
2023-02-11T00:32:10.646Z,3.15
2023-02-11T00:34:38.042Z,3.13
2023-02-11T00:37:04.897Z,3.72
2023-02-11T00:39:31.612Z,3.80
2023-02-11T00:41:58.214Z,3.03
2023-02-11T00:44:24.587Z,3.63
2023-02-11T00:46:50.971Z,3.47
2023-02-11T00:49:17.450Z,3.08
2023-02-11T00:51:43.750Z,3.28
2023-02-11T00:54:10.184Z,3.20
2023-02-11T00:56:36.497Z,3.58
2023-02-11T00:59:03.123Z,3.13
2023-02-11T01:01:29.555Z,3.15
2023-02-11T01:03:55.988Z,3.33
2023-02-11T01:06:22.376Z,4.05
2023-02-11T01:08:48.693Z,4.93
2023-02-11T01:11:16.642Z,3.60
2023-02-11T01:13:43.107Z,4.38
2023-02-11T01:16:10.249Z,4.38
2023-02-11T01:18:36.994Z,3.67
2023-02-11T01:21:03.830Z,4.20
2023-02-11T01:23:30.154Z,4.13
2023-02-11T01:25:56.567Z,5.10
2023-02-11T01:28:27.444Z,4.00
2023-02-11T01:30:54.363Z,4.15
2023-02-11T01:33:21.357Z,4.60
2023-02-11T01:35:47.912Z,3.67
2023-02-11T01:38:15.842Z,4.38
2023-02-11T01:40:46.858Z,4.82
2023-02-11T01:43:13.182Z,4.28
2023-02-11T01:45:46.925Z,4.88
2023-02-11T01:48:15.154Z,4.85
2023-02-11T01:50:43.081Z,4.32
2023-02-11T01:53:29.274Z,4.45
2023-02-11T01:56:14.923Z,4.80
2023-02-11T01:58:42.730Z,5.28
2023-02-11T02:01:11.295Z,5.50
2023-02-11T02:03:39.724Z,4.95
2023-02-11T02:06:08.244Z,4.72
2023-02-11T02:08:43.982Z,5.53
2023-02-11T02:11:10.402Z,5.88
2023-02-11T02:13:36.719Z,5.47
2023-02-11T02:16:09.788Z,5.97
2023-02-11T02:18:42.457Z,5.57
2023-02-11T02:21:27.353Z,6.03
2023-02-11T02:24:08.546Z,5.70
2023-02-11T02:26:46.872Z,6.00
2023-02-11T02:29:32.660Z,6.35
2023-02-11T02:32:17.944Z,5.72
2023-02-11T02:34:53.756Z,5.60
2023-02-11T02:39:48.567Z,5.72
2023-02-11T02:42:16.068Z,6.05
2023-02-11T02:44:47.644Z,6.65
2023-02-11T02:47:14.038Z,6.50
2023-02-11T02:49:40.345Z,6.35
2023-02-11T02:52:15.883Z,5.85
2023-02-11T02:54:42.224Z,6.57
2023-02-11T02:57:27.142Z,6.43
2023-02-11T02:59:59.364Z,6.05
2023-02-11T03:02:36.162Z,7.38
2023-02-11T03:05:10.126Z,6.88
2023-02-11T03:07:55.888Z,6.07
2023-02-11T03:10:30.308Z,7.50
2023-02-11T03:12:57.080Z,7.32
2023-02-11T03:15:24.642Z,6.43
2023-02-11T03:17:52.385Z,6.88
2023-02-11T03:20:20.096Z,7.47
2023-02-11T03:22:49.598Z,6.95
2023-02-11T03:25:16.063Z,7.50
2023-02-11T03:27:42.445Z,7.30
2023-02-11T03:30:08.978Z,6.15
2023-02-11T03:33:04.514Z,6.82
2023-02-11T03:35:42.098Z,6.53
2023-02-11T03:38:20.660Z,6.95
2023-02-11T03:40:47.156Z,8.15
2023-02-11T03:43:19.976Z,8.40
2023-02-11T03:45:48.470Z,9.38
2023-02-11T03:48:18.069Z,8.45
2023-02-11T03:50:45.316Z,9.13
2023-02-11T03:53:12.504Z,8.35
2023-02-11T03:55:39.897Z,9.60
2023-02-11T03:58:06.418Z,9.00
2023-02-11T04:00:34.768Z,10.05
2023-02-11T04:03:01.280Z,8.98
2023-02-11T04:05:27.673Z,9.02
2023-02-11T04:07:54.045Z,9.57
2023-02-11T04:10:20.545Z,9.73
2023-02-11T04:12:47.030Z,8.90
2023-02-11T04:15:13.708Z,6.75
2023-02-11T04:17:40.083Z,9.60
2023-02-11T04:20:06.559Z,10.23
2023-02-11T04:22:32.879Z,7.78
2023-02-11T04:24:59.264Z,10.13
2023-02-11T04:27:25.673Z,10.30
2023-02-11T04:29:52.118Z,9.38
2023-02-11T04:32:18.522Z,10.05
2023-02-11T04:34:44.824Z,11.15
2023-02-11T04:37:11.464Z,10.50
2023-02-11T04:39:37.903Z,9.60
2023-02-11T04:42:04.357Z,10.48
2023-02-11T04:44:30.659Z,7.28
2023-02-11T04:46:56.984Z,10.75
2023-02-11T04:49:23.299Z,10.93
2023-02-11T04:51:49.817Z,10.35
2023-02-11T04:54:16.599Z,10.15
2023-02-11T04:56:43.206Z,10.55
2023-02-11T04:59:09.661Z,10.18
2023-02-11T05:01:36.107Z,10.55
2023-02-11T05:04:02.707Z,10.73
2023-02-11T05:06:29.093Z,11.73
2023-02-11T05:08:55.537Z,11.88
2023-02-11T05:11:23.198Z,11.02
2023-02-11T05:13:49.595Z,11.75
2023-02-11T05:16:16.612Z,12.00
2023-02-11T05:18:43.770Z,11.82
2023-02-11T05:21:11.485Z,11.95
2023-02-11T05:23:38.479Z,10.50
2023-02-11T05:26:05.027Z,11.65
2023-02-11T05:28:31.816Z,12.20
2023-02-11T05:30:58.274Z,11.88
2023-02-11T05:33:24.804Z,12.35
2023-02-11T05:35:51.384Z,8.73
2023-02-11T05:38:17.944Z,11.75
2023-02-11T05:40:44.332Z,11.70
2023-02-11T05:43:10.672Z,11.88
2023-02-11T05:45:37.000Z,12.13
2023-02-11T05:48:03.359Z,11.85
2023-02-11T05:50:29.758Z,10.82
2023-02-11T05:52:56.085Z,12.35
2023-02-11T05:55:22.751Z,13.32
2023-02-11T05:57:49.106Z,12.98
2023-02-11T06:00:15.667Z,12.80
2023-02-11T06:02:42.285Z,12.50
2023-02-11T06:05:08.974Z,10.70
2023-02-11T06:07:35.305Z,12.98
2023-02-11T06:10:01.745Z,13.20
2023-02-11T06:12:28.094Z,11.27
2023-02-11T06:14:54.473Z,11.27
2023-02-11T06:17:20.861Z,13.18
2023-02-11T06:19:47.192Z,10.82
2023-02-11T06:22:13.574Z,12.50
2023-02-11T06:25:00.000Z,13.05
2023-02-11T06:27:26.412Z,9.82
2023-02-11T06:29:52.883Z,12.10
2023-02-11T06:32:39.538Z,11.27
2023-02-11T06:35:06.006Z,10.48
2023-02-11T06:37:33.617Z,12.13
2023-02-11T06:39:59.999Z,12.13
2023-02-11T06:42:26.475Z,13.40
2023-02-11T06:44:52.837Z,8.40
2023-02-11T06:47:19.163Z,11.13
2023-02-11T06:49:45.874Z,12.95
2023-02-11T06:52:12.256Z,13.10
2023-02-11T06:54:38.691Z,11.43
2023-02-11T06:57:05.312Z,8.68
2023-02-11T06:59:31.667Z,12.40
2023-02-11T07:01:58.066Z,12.13
2023-02-11T07:04:24.525Z,9.30
2023-02-11T07:06:50.955Z,12.30
2023-02-11T07:09:17.286Z,11.50
2023-02-11T07:11:43.737Z,12.27
2023-02-11T07:14:10.171Z,11.68
2023-02-11T07:16:36.875Z,11.90
2023-02-11T07:19:03.255Z,11.75
2023-02-11T07:21:29.633Z,11.85
2023-02-11T07:23:55.938Z,6.30
2023-02-11T07:26:23.992Z,10.02
2023-02-11T07:28:51.106Z,7.68
2023-02-11T07:31:19.073Z,11.93
2023-02-11T07:33:48.503Z,11.85
2023-02-11T07:36:15.801Z,12.07
2023-02-11T07:38:42.748Z,11.68
2023-02-11T07:41:10.739Z,9.25
2023-02-11T07:43:37.417Z,11.98
2023-02-11T07:46:04.869Z,11.05
2023-02-11T07:48:31.387Z,10.95
2023-02-11T07:51:05.217Z,8.82
2023-02-11T07:53:31.603Z,8.27
2023-02-11T07:55:57.960Z,10.57
2023-02-11T07:58:24.274Z,10.68
2023-02-11T08:00:50.691Z,7.43
2023-02-11T08:03:17.083Z,11.00
2023-02-11T08:05:43.902Z,9.48
2023-02-11T08:08:10.225Z,9.07
2023-02-11T08:10:37.078Z,10.75
2023-02-11T08:13:03.459Z,5.25
2023-02-11T08:15:29.806Z,9.93
2023-02-11T08:17:56.204Z,11.02
2023-02-11T08:20:22.509Z,9.00
2023-02-11T08:22:48.843Z,6.20
2023-02-11T08:25:15.213Z,3.90
2023-02-11T08:27:41.570Z,7.95
2023-02-11T08:30:08.215Z,9.02
2023-02-11T08:32:34.875Z,8.43
2023-02-11T08:35:01.398Z,7.75
2023-02-11T08:37:27.776Z,9.02
2023-02-11T08:39:54.079Z,6.20
2023-02-11T08:42:20.408Z,8.68
2023-02-11T08:44:46.822Z,7.95
2023-02-11T08:47:13.173Z,7.15
2023-02-11T08:49:41.826Z,9.02
2023-02-11T08:52:08.646Z,6.30
2023-02-11T08:54:34.992Z,5.40
2023-02-11T08:57:02.647Z,8.05
2023-02-11T08:59:29.183Z,7.78
2023-02-11T09:01:56.337Z,8.13
2023-02-11T09:04:22.708Z,6.90
2023-02-11T09:06:49.161Z,6.72
2023-02-11T09:09:16.150Z,3.40
2023-02-11T09:11:43.369Z,7.18
2023-02-11T09:14:15.222Z,4.88
2023-02-11T09:16:42.930Z,5.00
2023-02-11T09:19:09.553Z,7.13
2023-02-11T09:21:36.063Z,5.03
2023-02-11T09:24:02.437Z,5.30
2023-02-11T09:26:30.555Z,4.45
2023-02-11T09:28:57.391Z,4.50
2023-02-11T09:31:25.635Z,6.15
2023-02-11T09:33:54.087Z,5.38
2023-02-11T09:36:21.746Z,4.88
2023-02-11T09:38:48.425Z,6.05
2023-02-11T09:41:35.104Z,6.05
2023-02-11T09:44:02.923Z,4.22
2023-02-11T09:46:34.429Z,5.63
2023-02-11T09:49:01.917Z,4.50
2023-02-11T09:51:34.313Z,4.65
2023-02-11T09:54:04.446Z,3.78
2023-02-11T09:56:31.959Z,2.53
2023-02-11T09:58:59.321Z,5.65
2023-02-11T10:01:41.899Z,3.13
2023-02-11T10:04:32.127Z,5.10
2023-02-11T10:07:07.490Z,5.50
2023-02-11T10:09:39.787Z,5.45
2023-02-11T10:12:15.120Z,3.35
2023-02-11T10:14:44.250Z,4.40
2023-02-11T10:17:16.744Z,5.93
2023-02-11T10:19:52.148Z,5.40
2023-02-11T10:22:20.274Z,5.28
2023-02-11T10:25:05.461Z,3.03
2023-02-11T10:27:33.508Z,4.22
2023-02-11T10:30:06.900Z,3.65
2023-02-11T10:32:40.797Z,6.93
2023-02-11T10:35:15.142Z,5.22
2023-02-11T10:37:44.257Z,4.65
2023-02-11T10:40:18.593Z,2.60
2023-02-11T10:42:47.745Z,4.20
2023-02-11T10:45:26.400Z,4.30
2023-02-11T10:47:52.980Z,4.05
2023-02-11T10:50:29.840Z,3.08
2023-02-11T10:53:11.424Z,5.55
2023-02-11T10:55:37.994Z,4.30
2023-02-11T10:58:04.832Z,5.70
2023-02-11T11:00:32.399Z,5.13
2023-02-11T11:02:59.559Z,3.22
2023-02-11T11:05:31.523Z,5.28
2023-02-11T11:08:02.887Z,5.38
2023-02-11T11:10:34.377Z,6.22
2023-02-11T11:13:00.796Z,4.88
2023-02-11T11:15:28.630Z,6.63
2023-02-11T11:18:21.252Z,6.22
2023-02-11T11:20:58.373Z,5.13
2023-02-11T11:23:25.062Z,6.15
2023-02-11T11:26:05.506Z,6.57
2023-02-11T11:28:36.843Z,6.65
2023-02-11T11:31:03.633Z,6.07
2023-02-11T11:33:33.352Z,5.25
2023-02-11T11:36:02.788Z,6.07
2023-02-11T11:38:30.022Z,3.67
2023-02-11T11:41:14.582Z,5.13
2023-02-11T11:43:53.514Z,5.05
2023-02-11T11:46:22.990Z,5.10
2023-02-11T11:48:50.272Z,4.20
2023-02-11T11:51:16.949Z,5.72
2023-02-11T11:54:02.250Z,4.30
2023-02-11T11:56:30.608Z,3.85
2023-02-11T11:58:58.237Z,5.78
2023-02-11T12:01:43.551Z,5.47
2023-02-11T12:04:28.710Z,3.63
2023-02-11T12:07:13.721Z,4.82
2023-02-11T12:09:45.935Z,5.75
2023-02-11T12:12:32.621Z,5.15
2023-02-11T12:15:14.969Z,4.95
2023-02-11T12:17:55.578Z,3.67
2023-02-11T12:20:23.620Z,3.22
2023-02-11T12:22:57.319Z,4.22
2023-02-11T12:25:35.747Z,6.80
2023-02-11T12:28:02.312Z,4.75
2023-02-11T12:30:34.955Z,5.13
2023-02-11T12:33:04.900Z,5.72
2023-02-11T12:35:38.851Z,5.43
2023-02-11T12:38:20.177Z,4.05
2023-02-11T12:41:10.360Z,4.97
2023-02-11T12:43:40.980Z,3.40
2023-02-11T12:46:26.114Z,5.07
2023-02-11T12:48:52.450Z,4.00
2023-02-11T12:51:27.946Z,4.88
2023-02-11T12:53:57.009Z,4.63
2023-02-11T12:56:26.918Z,4.90
2023-02-11T12:58:55.950Z,4.32
2023-02-11T13:01:25.702Z,3.15
2023-02-11T13:03:59.033Z,4.82
2023-02-11T13:06:29.944Z,2.92
2023-02-11T13:09:00.649Z,4.70
2023-02-11T13:11:51.921Z,4.78
2023-02-11T13:14:26.939Z,4.10
2023-02-11T13:16:54.176Z,2.53
2023-02-11T13:19:20.680Z,3.05
2023-02-11T13:21:56.011Z,4.05
2023-02-11T13:24:25.310Z,3.42
2023-02-11T13:26:51.622Z,3.53
2023-02-11T13:29:18.224Z,3.53
2023-02-11T13:31:53.287Z,2.30
2023-02-11T13:34:58.084Z,2.95
2023-02-11T13:37:30.278Z,4.13
2023-02-11T13:40:04.859Z,2.85
2023-02-11T13:42:50.412Z,3.30
2023-02-11T13:45:29.285Z,2.45
2023-02-11T13:47:59.925Z,4.13
2023-02-11T13:50:27.101Z,2.25
2023-02-11T13:53:01.398Z,3.00
2023-02-11T13:55:28.237Z,3.65
2023-02-11T13:58:06.868Z,3.30
2023-02-11T14:00:39.261Z,2.00
2023-02-11T14:03:30.510Z,2.63
2023-02-11T14:06:27.699Z,2.58
2023-02-11T14:09:09.326Z,1.50
2023-02-11T14:11:41.894Z,3.70
2023-02-11T14:14:08.208Z,1.65
2023-02-11T14:16:38.362Z,3.47
2023-02-11T14:19:06.106Z,3.08
2023-02-11T14:21:40.683Z,3.42
2023-02-11T14:24:11.088Z,1.75
2023-02-11T14:26:56.499Z,3.38
2023-02-11T14:29:26.167Z,2.77
2023-02-11T14:32:00.267Z,2.72
2023-02-11T14:34:45.586Z,3.47
2023-02-11T14:37:50.288Z,2.28
2023-02-11T14:40:41.908Z,2.35
2023-02-11T14:43:12.130Z,2.90
2023-02-11T14:45:39.219Z,3.65
2023-02-11T14:48:14.933Z,3.13
2023-02-11T14:50:57.719Z,2.10
2023-02-11T14:53:25.125Z,2.35
2023-02-11T14:55:52.562Z,2.85
2023-02-11T14:58:21.760Z,2.50
2023-02-11T15:01:01.481Z,3.10
2023-02-11T15:03:29.933Z,2.60
2023-02-11T15:05:57.973Z,2.88
2023-02-11T15:08:24.412Z,3.00
2023-02-11T15:10:51.265Z,2.53
2023-02-11T15:13:22.756Z,2.85
2023-02-11T15:15:50.903Z,2.63
2023-02-11T15:18:22.550Z,1.70
2023-02-11T15:20:50.008Z,2.70
2023-02-11T15:23:22.614Z,2.40
2023-02-11T15:25:55.815Z,1.77
2023-02-11T15:28:24.625Z,1.70
2023-02-11T15:31:03.481Z,3.17
2023-02-11T15:33:31.125Z,2.45
2023-02-11T15:35:58.488Z,2.25
2023-02-11T15:38:24.903Z,1.17
2023-02-11T15:40:55.187Z,1.42
2023-02-11T15:43:21.624Z,2.80
2023-02-11T15:45:56.768Z,2.13
2023-02-11T15:48:35.312Z,1.80
2023-02-11T15:51:03.737Z,2.45
2023-02-11T15:53:36.173Z,1.70
2023-02-11T15:56:15.788Z,3.30
2023-02-11T15:58:43.367Z,3.10
2023-02-11T16:01:10.626Z,3.20
2023-02-11T16:03:37.015Z,2.30
2023-02-11T16:06:16.895Z,2.58
2023-02-11T16:08:43.429Z,2.40
2023-02-11T16:11:23.045Z,4.47
2023-02-11T16:13:49.455Z,2.75
2023-02-11T16:16:23.311Z,1.42
2023-02-11T16:19:09.906Z,1.08
2023-02-11T16:21:42.422Z,3.13
2023-02-11T16:24:17.422Z,2.33
2023-02-11T16:26:47.527Z,3.40
2023-02-11T16:29:15.978Z,2.42
2023-02-11T16:31:43.795Z,2.17
2023-02-11T16:34:18.099Z,2.13
2023-02-11T16:36:45.160Z,2.83
2023-02-11T16:39:11.592Z,2.97
2023-02-11T16:41:38.066Z,2.42
2023-02-11T16:44:04.524Z,1.95
2023-02-11T16:46:31.328Z,2.65
2023-02-11T16:48:58.972Z,3.15
2023-02-11T16:51:25.474Z,2.80
2023-02-11T16:53:51.774Z,2.50
2023-02-11T16:56:18.430Z,3.13
2023-02-11T16:58:45.323Z,1.50
2023-02-11T17:01:13.891Z,2.92
2023-02-11T17:03:40.697Z,2.83
2023-02-11T17:06:09.290Z,3.22
2023-02-11T17:08:35.831Z,3.15
2023-02-11T17:11:02.919Z,2.70
2023-02-11T17:13:29.382Z,2.67
2023-02-11T17:15:55.910Z,3.15
2023-02-11T17:18:22.301Z,3.35
2023-02-11T17:20:48.678Z,2.97
2023-02-11T17:23:15.055Z,2.90
2023-02-11T17:25:41.370Z,3.00
2023-02-11T17:28:08.691Z,3.08
2023-02-11T17:30:35.120Z,3.95
2023-02-11T17:33:01.551Z,4.38
2023-02-11T17:35:28.192Z,2.75
2023-02-11T17:37:54.755Z,3.03
2023-02-11T17:40:21.325Z,3.95
2023-02-11T17:42:47.648Z,3.83
2023-02-11T17:45:14.185Z,4.03
2023-02-11T17:47:40.596Z,4.82
2023-02-11T17:50:07.228Z,4.47
2023-02-11T17:52:33.645Z,5.18
2023-02-11T17:55:00.027Z,3.70
2023-02-11T17:57:26.488Z,4.38
2023-02-11T17:59:52.813Z,3.90
2023-02-11T18:02:19.403Z,4.07
2023-02-11T18:04:45.917Z,3.97
2023-02-11T18:07:12.469Z,4.13
2023-02-11T18:09:39.854Z,3.95
2023-02-11T18:12:07.120Z,4.60
2023-02-11T18:14:34.031Z,1.92
2023-02-11T18:17:00.622Z,4.78
2023-02-11T18:19:30.513Z,4.22
2023-02-11T18:21:59.768Z,4.43
2023-02-11T18:24:27.326Z,3.28
2023-02-11T18:26:53.689Z,1.92
2023-02-11T18:29:20.218Z,4.07
2023-02-11T18:31:46.616Z,2.83
2023-02-11T18:34:13.138Z,3.67
2023-02-11T18:36:39.598Z,2.67
2023-02-11T18:39:06.284Z,4.22
2023-02-11T18:41:33.084Z,4.07
2023-02-11T18:44:02.941Z,3.45
2023-02-11T18:46:29.864Z,4.00
2023-02-11T18:48:56.484Z,4.05
2023-02-11T18:51:23.213Z,3.92
2023-02-11T18:53:49.640Z,4.15
2023-02-11T18:56:18.285Z,2.22
2023-02-11T18:58:45.068Z,3.95
2023-02-11T19:01:11.408Z,3.03
2023-02-11T19:03:38.015Z,3.78
2023-02-11T19:06:04.532Z,4.57
2023-02-11T19:08:31.057Z,4.95
2023-02-11T19:10:57.412Z,4.20
2023-02-11T19:13:23.781Z,2.95
2023-02-11T19:15:50.428Z,3.78
2023-02-11T19:18:17.098Z,4.13
2023-02-11T19:20:43.999Z,2.88
2023-02-11T19:23:10.863Z,4.43
2023-02-11T19:25:37.516Z,4.75
2023-02-11T19:28:03.974Z,5.35
2023-02-11T19:30:32.603Z,7.65
2023-02-11T19:32:59.139Z,4.70
2023-02-11T19:35:25.531Z,4.18
2023-02-11T19:37:51.978Z,4.10
2023-02-11T19:40:19.225Z,4.00
2023-02-11T19:42:45.618Z,4.32
2023-02-11T19:45:12.010Z,4.13
2023-02-11T19:47:38.706Z,4.65
2023-02-11T19:50:05.728Z,4.13
2023-02-11T19:52:32.145Z,3.13
2023-02-11T19:54:58.606Z,4.32
2023-02-11T19:57:25.102Z,4.07
2023-02-11T19:59:55.018Z,2.40
2023-02-11T20:02:24.380Z,4.70
2023-02-11T20:04:50.845Z,4.10
2023-02-11T20:07:17.430Z,4.07
2023-02-11T20:09:44.072Z,4.13
2023-02-11T20:12:12.265Z,4.25
2023-02-11T20:14:38.966Z,4.30
2023-02-11T20:17:05.400Z,3.20
2023-02-11T20:19:32.097Z,4.50
2023-02-11T20:21:58.874Z,4.30
2023-02-11T20:24:26.457Z,4.50
2023-02-11T20:26:55.907Z,3.00
2023-02-11T20:29:23.399Z,4.50
2023-02-11T20:31:50.229Z,3.88
2023-02-11T20:34:17.859Z,3.95
2023-02-11T20:36:51.337Z,4.20
2023-02-11T20:39:18.555Z,4.15
2023-02-11T20:41:46.115Z,4.90
2023-02-11T20:44:12.960Z,3.15
2023-02-11T20:46:40.558Z,5.00
2023-02-11T20:49:08.582Z,4.97
2023-02-11T20:51:35.027Z,4.63
2023-02-11T20:54:01.474Z,4.45
2023-02-11T20:56:29.575Z,4.63
2023-02-11T20:58:59.436Z,3.58
2023-02-11T21:01:27.503Z,3.38
2023-02-11T21:03:53.936Z,5.47
2023-02-11T21:06:20.852Z,5.00
2023-02-11T21:08:47.527Z,4.65
2023-02-11T21:11:14.267Z,5.85
2023-02-11T21:13:41.767Z,8.50
2023-02-11T21:16:09.483Z,4.90
2023-02-11T21:18:36.662Z,5.13
2023-02-11T21:21:05.386Z,5.40
2023-02-11T21:23:33.092Z,5.32
2023-02-11T21:25:59.631Z,5.97
2023-02-11T21:28:26.467Z,8.13
2023-02-11T21:30:53.972Z,5.38
2023-02-11T21:33:20.594Z,8.23
2023-02-11T21:35:47.169Z,7.45
2023-02-11T21:38:13.520Z,9.07
2023-02-11T21:40:39.892Z,6.80
2023-02-11T21:43:06.334Z,6.07
2023-02-11T21:45:32.786Z,5.78
2023-02-11T21:47:59.162Z,5.95
2023-02-11T21:50:25.659Z,5.63
2023-02-11T21:52:52.163Z,6.03
2023-02-11T21:55:18.600Z,5.90
2023-02-11T21:57:45.028Z,6.07
2023-02-11T22:00:11.875Z,5.85
2023-02-11T22:02:38.353Z,7.10
2023-02-11T22:05:04.990Z,6.57
2023-02-11T22:07:31.448Z,6.13
2023-02-11T22:09:59.215Z,4.97
2023-02-11T22:12:25.554Z,6.78
2023-02-11T22:14:51.872Z,7.38
2023-02-11T22:17:18.258Z,6.00
2023-02-11T22:19:44.858Z,6.30
2023-02-11T22:22:12.983Z,6.38
2023-02-11T22:24:40.736Z,6.47
2023-02-11T22:27:07.178Z,7.20
2023-02-11T22:29:33.573Z,7.20
2023-02-11T22:32:00.030Z,9.00
2023-02-11T22:34:26.627Z,7.40
2023-02-11T22:36:53.022Z,8.00
2023-02-11T22:39:19.481Z,7.10
2023-02-11T22:41:47.276Z,7.20
2023-02-11T22:44:16.287Z,7.13
2023-02-11T22:46:43.408Z,7.50
2023-02-11T22:49:10.634Z,8.23
2023-02-11T22:51:37.206Z,8.77
2023-02-11T22:54:04.976Z,6.93
2023-02-11T22:56:31.934Z,7.82
2023-02-11T22:58:59.594Z,8.45
2023-02-11T23:01:26.071Z,7.90
2023-02-11T23:03:52.493Z,7.68
2023-02-11T23:06:18.885Z,8.32
2023-02-11T23:08:45.298Z,10.23
2023-02-11T23:11:16.220Z,9.65
2023-02-11T23:13:43.112Z,8.85
2023-02-11T23:16:11.250Z,9.57
2023-02-11T23:18:38.382Z,8.95
2023-02-11T23:21:11.376Z,8.52
2023-02-11T23:23:39.287Z,8.45
2023-02-11T23:26:08.799Z,8.85
2023-02-11T23:28:35.262Z,10.18
2023-02-11T23:31:01.761Z,10.18
2023-02-11T23:33:28.187Z,8.45
2023-02-11T23:35:54.836Z,8.52
2023-02-11T23:38:21.350Z,8.63
2023-02-11T23:40:47.720Z,8.13
2023-02-11T23:43:14.100Z,8.60
2023-02-11T23:45:40.621Z,8.88
2023-02-11T23:48:07.005Z,7.97
2023-02-11T23:50:34.493Z,7.78
2023-02-11T23:53:00.954Z,8.20
2023-02-11T23:55:27.271Z,6.28
2023-02-11T23:57:53.591Z,6.13
